sensor_id;sensor_type;location;lat;lon;timestamp;temperature;humidity
61207;DHT22;47070;49.212;8.084;2022-07-22T00:01:46;20.60;99.90
61207;DHT22;47070;49.212;8.084;2022-07-22T00:05:47;20.60;99.90
61207;DHT22;47070;49.212;8.084;2022-07-22T00:09:47;20.50;99.90
61207;DHT22;47070;49.212;8.084;2022-07-22T00:13:48;20.40;99.90
61207;DHT22;47070;49.212;8.084;2022-07-22T00:17:48;20.40;99.90
61207;DHT22;47070;49.212;8.084;2022-07-22T00:21:49;20.30;99.90
61207;DHT22;47070;49.212;8.084;2022-07-22T00:25:49;20.30;99.90
61207;DHT22;47070;49.212;8.084;2022-07-22T00:29:50;20.30;99.90
61207;DHT22;47070;49.212;8.084;2022-07-22T00:33:51;20.30;99.90
61207;DHT22;47070;49.212;8.084;2022-07-22T00:37:51;20.30;99.90
61207;DHT22;47070;49.212;8.084;2022-07-22T00:41:52;20.20;99.90
61207;DHT22;47070;49.212;8.084;2022-07-22T00:45:52;20.40;99.90
61207;DHT22;47070;49.212;8.084;2022-07-22T00:49:53;20.30;99.90
61207;DHT22;47070;49.212;8.084;2022-07-22T00:53:55;20.20;99.90
61207;DHT22;47070;49.212;8.084;2022-07-22T00:57:56;20.20;99.90
61207;DHT22;47070;49.212;8.084;2022-07-22T01:01:57;20.10;99.90
61207;DHT22;47070;49.212;8.084;2022-07-22T01:05:57;20.20;99.90
61207;DHT22;47070;49.212;8.084;2022-07-22T01:09:58;20.10;99.90
61207;DHT22;47070;49.212;8.084;2022-07-22T01:13:58;20.10;99.90
61207;DHT22;47070;49.212;8.084;2022-07-22T01:17:59;20.00;99.90
61207;DHT22;47070;49.212;8.084;2022-07-22T01:22:00;19.70;99.90
61207;DHT22;47070;49.212;8.084;2022-07-22T01:26:01;19.80;99.90
61207;DHT22;47070;49.212;8.084;2022-07-22T01:30:03;19.60;99.90
61207;DHT22;47070;49.212;8.084;2022-07-22T01:34:03;19.40;99.90
61207;DHT22;47070;49.212;8.084;2022-07-22T01:38:04;19.40;99.90
61207;DHT22;47070;49.212;8.084;2022-07-22T01:42:06;19.40;99.90
61207;DHT22;47070;49.212;8.084;2022-07-22T01:46:07;19.40;99.90
61207;DHT22;47070;49.212;8.084;2022-07-22T01:50:09;19.40;99.90
61207;DHT22;47070;49.212;8.084;2022-07-22T01:54:10;19.30;99.90
61207;DHT22;47070;49.212;8.084;2022-07-22T01:58:10;19.30;99.90
61207;DHT22;47070;49.212;8.084;2022-07-22T02:02:11;19.30;99.90
61207;DHT22;47070;49.212;8.084;2022-07-22T02:06:12;19.30;99.90
61207;DHT22;47070;49.212;8.084;2022-07-22T02:10:12;19.20;99.90
61207;DHT22;47070;49.212;8.084;2022-07-22T02:14:13;19.20;99.90
61207;DHT22;47070;49.212;8.084;2022-07-22T02:18:15;19.10;99.90
61207;DHT22;47070;49.212;8.084;2022-07-22T02:22:16;19.20;99.90
61207;DHT22;47070;49.212;8.084;2022-07-22T02:26:17;19.00;99.90
61207;DHT22;47070;49.212;8.084;2022-07-22T02:30:17;19.00;99.90
61207;DHT22;47070;49.212;8.084;2022-07-22T02:34:18;18.80;99.90
61207;DHT22;47070;49.212;8.084;2022-07-22T02:38:18;18.60;99.90
61207;DHT22;47070;49.212;8.084;2022-07-22T02:42:19;18.50;99.90
61207;DHT22;47070;49.212;8.084;2022-07-22T02:46:24;18.50;99.90
61207;DHT22;47070;49.212;8.084;2022-07-22T02:50:25;18.30;99.90
61207;DHT22;47070;49.212;8.084;2022-07-22T02:54:26;18.40;99.90
61207;DHT22;47070;49.212;8.084;2022-07-22T02:58:26;18.20;99.90
61207;DHT22;47070;49.212;8.084;2022-07-22T03:02:27;18.30;99.90
61207;DHT22;47070;49.212;8.084;2022-07-22T03:06:27;18.30;99.90
61207;DHT22;47070;49.212;8.084;2022-07-22T03:10:28;18.30;99.90
61207;DHT22;47070;49.212;8.084;2022-07-22T03:14:29;18.20;99.90
61207;DHT22;47070;49.212;8.084;2022-07-22T03:18:29;18.00;99.90
61207;DHT22;47070;49.212;8.084;2022-07-22T03:22:30;18.10;99.90
61207;DHT22;47070;49.212;8.084;2022-07-22T03:26:30;18.20;99.90
61207;DHT22;47070;49.212;8.084;2022-07-22T03:30:31;18.10;99.90
61207;DHT22;47070;49.212;8.084;2022-07-22T03:34:32;18.40;99.90
61207;DHT22;47070;49.212;8.084;2022-07-22T03:38:34;18.20;99.90
61207;DHT22;47070;49.212;8.084;2022-07-22T03:42:35;18.30;99.90
61207;DHT22;47070;49.212;8.084;2022-07-22T03:46:36;18.20;99.90
61207;DHT22;47070;49.212;8.084;2022-07-22T03:50:36;18.20;99.90
61207;DHT22;47070;49.212;8.084;2022-07-22T03:54:37;18.20;99.90
61207;DHT22;47070;49.212;8.084;2022-07-22T03:58:37;18.00;99.90
61207;DHT22;47070;49.212;8.084;2022-07-22T04:02:38;18.10;99.90
61207;DHT22;47070;49.212;8.084;2022-07-22T04:06:38;18.00;99.90
61207;DHT22;47070;49.212;8.084;2022-07-22T04:10:39;17.80;99.90
61207;DHT22;47070;49.212;8.084;2022-07-22T04:14:39;17.70;99.90
61207;DHT22;47070;49.212;8.084;2022-07-22T04:18:40;17.80;99.90
61207;DHT22;47070;49.212;8.084;2022-07-22T04:22:41;17.80;99.90
61207;DHT22;47070;49.212;8.084;2022-07-22T04:26:41;17.80;99.90
61207;DHT22;47070;49.212;8.084;2022-07-22T04:30:42;17.90;99.90
61207;DHT22;47070;49.212;8.084;2022-07-22T04:34:42;17.80;99.90
61207;DHT22;47070;49.212;8.084;2022-07-22T04:38:43;17.90;99.90
61207;DHT22;47070;49.212;8.084;2022-07-22T04:42:43;17.90;99.90
61207;DHT22;47070;49.212;8.084;2022-07-22T04:46:45;18.00;99.90
61207;DHT22;47070;49.212;8.084;2022-07-22T04:50:46;18.20;99.90
61207;DHT22;47070;49.212;8.084;2022-07-22T04:54:46;18.30;99.90
61207;DHT22;47070;49.212;8.084;2022-07-22T04:58:47;18.50;99.90
61207;DHT22;47070;49.212;8.084;2022-07-22T05:02:48;18.70;99.90
61207;DHT22;47070;49.212;8.084;2022-07-22T05:06:48;18.90;99.90
61207;DHT22;47070;49.212;8.084;2022-07-22T05:10:48;19.00;99.90
61207;DHT22;47070;49.212;8.084;2022-07-22T05:14:49;19.10;99.90
61207;DHT22;47070;49.212;8.084;2022-07-22T05:18:49;19.30;99.90
61207;DHT22;47070;49.212;8.084;2022-07-22T05:22:50;19.30;99.90
61207;DHT22;47070;49.212;8.084;2022-07-22T05:26:51;19.40;99.90
61207;DHT22;47070;49.212;8.084;2022-07-22T05:30:51;19.40;99.90
61207;DHT22;47070;49.212;8.084;2022-07-22T05:34:52;19.30;99.90
61207;DHT22;47070;49.212;8.084;2022-07-22T05:38:52;19.50;99.90
61207;DHT22;47070;49.212;8.084;2022-07-22T05:42:52;19.60;99.90
61207;DHT22;47070;49.212;8.084;2022-07-22T05:46:53;19.60;99.90
61207;DHT22;47070;49.212;8.084;2022-07-22T05:50:53;19.70;99.90
61207;DHT22;47070;49.212;8.084;2022-07-22T05:54:54;19.70;99.90
61207;DHT22;47070;49.212;8.084;2022-07-22T05:58:54;20.00;99.90
61207;DHT22;47070;49.212;8.084;2022-07-22T06:02:56;19.90;99.90
61207;DHT22;47070;49.212;8.084;2022-07-22T06:06:56;20.10;99.90
61207;DHT22;47070;49.212;8.084;2022-07-22T06:10:58;20.80;99.90
61207;DHT22;47070;49.212;8.084;2022-07-22T06:14:59;21.10;99.90
61207;DHT22;47070;49.212;8.084;2022-07-22T06:19:00;21.00;99.90
61207;DHT22;47070;49.212;8.084;2022-07-22T06:23:01;21.10;99.90
61207;DHT22;47070;49.212;8.084;2022-07-22T06:27:01;20.70;99.90
61207;DHT22;47070;49.212;8.084;2022-07-22T06:31:02;20.70;99.90
61207;DHT22;47070;49.212;8.084;2022-07-22T06:35:03;20.70;99.90
61207;DHT22;47070;49.212;8.084;2022-07-22T06:39:04;20.70;99.90
61207;DHT22;47070;49.212;8.084;2022-07-22T06:43:04;20.80;99.90
61207;DHT22;47070;49.212;8.084;2022-07-22T06:47:05;20.60;99.90
61207;DHT22;47070;49.212;8.084;2022-07-22T06:51:05;20.50;99.90
61207;DHT22;47070;49.212;8.084;2022-07-22T06:55:07;20.70;99.90
61207;DHT22;47070;49.212;8.084;2022-07-22T06:59:08;20.60;99.90
61207;DHT22;47070;49.212;8.084;2022-07-22T07:03:08;20.60;99.90
61207;DHT22;47070;49.212;8.084;2022-07-22T07:07:09;20.60;99.90
61207;DHT22;47070;49.212;8.084;2022-07-22T07:11:09;20.50;99.90
61207;DHT22;47070;49.212;8.084;2022-07-22T07:15:10;20.60;99.90
61207;DHT22;47070;49.212;8.084;2022-07-22T07:19:12;20.80;99.90
61207;DHT22;47070;49.212;8.084;2022-07-22T07:23:12;20.90;99.90
61207;DHT22;47070;49.212;8.084;2022-07-22T07:27:13;20.70;99.90
61207;DHT22;47070;49.212;8.084;2022-07-22T07:31:13;20.80;99.90
61207;DHT22;47070;49.212;8.084;2022-07-22T07:35:14;21.00;99.90
61207;DHT22;47070;49.212;8.084;2022-07-22T07:39:14;21.10;99.90
61207;DHT22;47070;49.212;8.084;2022-07-22T07:43:15;21.10;99.90
61207;DHT22;47070;49.212;8.084;2022-07-22T07:47:16;21.30;99.90
61207;DHT22;47070;49.212;8.084;2022-07-22T07:51:19;21.30;99.90
61207;DHT22;47070;49.212;8.084;2022-07-22T07:55:19;21.40;99.90
61207;DHT22;47070;49.212;8.084;2022-07-22T07:59:20;21.50;99.90
61207;DHT22;47070;49.212;8.084;2022-07-22T08:03:21;21.50;99.90
61207;DHT22;47070;49.212;8.084;2022-07-22T08:07:21;21.50;99.90
61207;DHT22;47070;49.212;8.084;2022-07-22T08:11:22;21.70;99.90
61207;DHT22;47070;49.212;8.084;2022-07-22T08:15:24;21.80;99.90
61207;DHT22;47070;49.212;8.084;2022-07-22T08:19:24;22.00;99.90
61207;DHT22;47070;49.212;8.084;2022-07-22T08:23:25;21.90;99.90
61207;DHT22;47070;49.212;8.084;2022-07-22T08:27:25;22.30;99.90
61207;DHT22;47070;49.212;8.084;2022-07-22T08:31:27;22.20;99.90
61207;DHT22;47070;49.212;8.084;2022-07-22T08:35:28;22.30;99.90
61207;DHT22;47070;49.212;8.084;2022-07-22T08:39:28;22.40;99.90
61207;DHT22;47070;49.212;8.084;2022-07-22T08:43:30;22.40;99.90
61207;DHT22;47070;49.212;8.084;2022-07-22T08:47:31;22.40;99.90
61207;DHT22;47070;49.212;8.084;2022-07-22T08:51:31;22.50;99.90
61207;DHT22;47070;49.212;8.084;2022-07-22T08:55:33;22.60;99.90
61207;DHT22;47070;49.212;8.084;2022-07-22T08:59:33;22.80;99.90
61207;DHT22;47070;49.212;8.084;2022-07-22T09:03:53;22.80;99.90
61207;DHT22;47070;49.212;8.084;2022-07-22T09:07:57;22.70;99.90
61207;DHT22;47070;49.212;8.084;2022-07-22T09:12:06;22.70;99.90
61207;DHT22;47070;49.212;8.084;2022-07-22T09:16:07;22.90;99.90
61207;DHT22;47070;49.212;8.084;2022-07-22T09:20:26;22.90;99.90
61207;DHT22;47070;49.212;8.084;2022-07-22T09:24:32;23.00;99.90
61207;DHT22;47070;49.212;8.084;2022-07-22T09:28:33;23.00;99.90
61207;DHT22;47070;49.212;8.084;2022-07-22T09:32:40;23.00;99.90
61207;DHT22;47070;49.212;8.084;2022-07-22T09:37:01;23.10;99.90
61207;DHT22;47070;49.212;8.084;2022-07-22T09:41:03;23.50;99.90
61207;DHT22;47070;49.212;8.084;2022-07-22T09:45:04;23.60;99.90
61207;DHT22;47070;49.212;8.084;2022-07-22T09:49:05;23.60;99.90
61207;DHT22;47070;49.212;8.084;2022-07-22T09:53:06;23.60;99.90
61207;DHT22;47070;49.212;8.084;2022-07-22T09:57:06;23.70;99.90
61207;DHT22;47070;49.212;8.084;2022-07-22T10:01:07;23.50;99.90
61207;DHT22;47070;49.212;8.084;2022-07-22T10:05:11;23.50;99.90
61207;DHT22;47070;49.212;8.084;2022-07-22T10:09:14;23.80;99.90
61207;DHT22;47070;49.212;8.084;2022-07-22T10:13:17;24.00;99.90
61207;DHT22;47070;49.212;8.084;2022-07-22T10:17:19;23.70;99.90
61207;DHT22;47070;49.212;8.084;2022-07-22T10:21:31;23.80;99.90
61207;DHT22;47070;49.212;8.084;2022-07-22T10:29:49;24.20;99.90
61207;DHT22;47070;49.212;8.084;2022-07-22T10:33:55;24.30;99.90
61207;DHT22;47070;49.212;8.084;2022-07-22T10:37:58;24.30;99.90
61207;DHT22;47070;49.212;8.084;2022-07-22T10:41:59;24.40;99.90
61207;DHT22;47070;49.212;8.084;2022-07-22T10:46:01;24.50;99.90
61207;DHT22;47070;49.212;8.084;2022-07-22T10:55:16;24.70;99.90
61207;DHT22;47070;49.212;8.084;2022-07-22T10:59:17;24.80;99.90
61207;DHT22;47070;49.212;8.084;2022-07-22T11:03:24;24.90;99.90
61207;DHT22;47070;49.212;8.084;2022-07-22T11:07:25;25.20;99.90
61207;DHT22;47070;49.212;8.084;2022-07-22T11:11:47;25.00;99.90
61207;DHT22;47070;49.212;8.084;2022-07-22T11:15:47;25.20;99.90
61207;DHT22;47070;49.212;8.084;2022-07-22T11:19:51;25.30;99.90
61207;DHT22;47070;49.212;8.084;2022-07-22T11:23:54;25.30;99.90
61207;DHT22;47070;49.212;8.084;2022-07-22T11:27:55;25.50;99.90
61207;DHT22;47070;49.212;8.084;2022-07-22T11:31:58;25.60;99.90
61207;DHT22;47070;49.212;8.084;2022-07-22T11:36:06;25.60;99.90
61207;DHT22;47070;49.212;8.084;2022-07-22T11:40:09;25.60;99.90
61207;DHT22;47070;49.212;8.084;2022-07-22T11:44:10;25.70;99.90
61207;DHT22;47070;49.212;8.084;2022-07-22T11:48:10;25.90;99.90
61207;DHT22;47070;49.212;8.084;2022-07-22T11:52:11;25.90;99.90
61207;DHT22;47070;49.212;8.084;2022-07-22T11:56:15;26.10;99.90
61207;DHT22;47070;49.212;8.084;2022-07-22T12:00:16;26.20;99.90
61207;DHT22;47070;49.212;8.084;2022-07-22T12:04:23;26.50;99.90
61207;DHT22;47070;49.212;8.084;2022-07-22T12:08:24;26.70;99.90
61207;DHT22;47070;49.212;8.084;2022-07-22T12:12:39;27.30;99.90
61207;DHT22;47070;49.212;8.084;2022-07-22T12:16:41;27.90;99.90
61207;DHT22;47070;49.212;8.084;2022-07-22T12:20:47;28.40;99.90
61207;DHT22;47070;49.212;8.084;2022-07-22T12:24:59;29.10;98.80
61207;DHT22;47070;49.212;8.084;2022-07-22T12:29:20;29.60;97.70
61207;DHT22;47070;49.212;8.084;2022-07-22T12:33:22;29.70;96.80
61207;DHT22;47070;49.212;8.084;2022-07-22T12:37:27;30.20;97.00
61207;DHT22;47070;49.212;8.084;2022-07-22T12:41:28;30.90;96.90
61207;DHT22;47070;49.212;8.084;2022-07-22T12:45:31;31.00;95.30
61207;DHT22;47070;49.212;8.084;2022-07-22T12:49:31;31.40;94.10
61207;DHT22;47070;49.212;8.084;2022-07-22T12:53:32;31.10;94.20
61207;DHT22;47070;49.212;8.084;2022-07-22T12:57:33;31.30;92.90
61207;DHT22;47070;49.212;8.084;2022-07-22T13:01:34;31.60;92.40
61207;DHT22;47070;49.212;8.084;2022-07-22T13:05:34;31.50;91.80
61207;DHT22;47070;49.212;8.084;2022-07-22T13:09:36;32.10;90.40
61207;DHT22;47070;49.212;8.084;2022-07-22T13:13:36;32.60;88.90
61207;DHT22;47070;49.212;8.084;2022-07-22T13:17:37;32.90;87.70
61207;DHT22;47070;49.212;8.084;2022-07-22T13:21:37;33.30;88.50
61207;DHT22;47070;49.212;8.084;2022-07-22T13:25:38;33.50;84.90
61207;DHT22;47070;49.212;8.084;2022-07-22T13:29:39;33.90;83.50
61207;DHT22;47070;49.212;8.084;2022-07-22T13:33:39;34.60;82.60
61207;DHT22;47070;49.212;8.084;2022-07-22T13:37:40;35.70;77.80
61207;DHT22;47070;49.212;8.084;2022-07-22T13:41:41;36.60;79.30
61207;DHT22;47070;49.212;8.084;2022-07-22T13:45:42;36.60;74.30
61207;DHT22;47070;49.212;8.084;2022-07-22T13:49:43;37.20;74.90
61207;DHT22;47070;49.212;8.084;2022-07-22T13:53:44;37.90;74.60
61207;DHT22;47070;49.212;8.084;2022-07-22T13:57:45;37.70;72.30
61207;DHT22;47070;49.212;8.084;2022-07-22T14:01:46;37.40;71.10
61207;DHT22;47070;49.212;8.084;2022-07-22T14:05:48;39.00;71.30
61207;DHT22;47070;49.212;8.084;2022-07-22T14:09:49;39.20;69.00
61207;DHT22;47070;49.212;8.084;2022-07-22T14:13:49;40.10;66.50
61207;DHT22;47070;49.212;8.084;2022-07-22T14:17:50;39.80;65.80
61207;DHT22;47070;49.212;8.084;2022-07-22T14:21:50;39.10;64.80
61207;DHT22;47070;49.212;8.084;2022-07-22T14:25:51;39.80;63.40
61207;DHT22;47070;49.212;8.084;2022-07-22T14:29:51;40.20;61.70
61207;DHT22;47070;49.212;8.084;2022-07-22T14:33:53;41.00;61.70
61207;DHT22;47070;49.212;8.084;2022-07-22T14:37:53;41.10;60.30
61207;DHT22;47070;49.212;8.084;2022-07-22T14:41:54;40.90;58.50
61207;DHT22;47070;49.212;8.084;2022-07-22T14:45:54;40.00;59.70
61207;DHT22;47070;49.212;8.084;2022-07-22T14:49:55;38.70;59.60
61207;DHT22;47070;49.212;8.084;2022-07-22T14:53:56;35.70;63.50
61207;DHT22;47070;49.212;8.084;2022-07-22T14:57:56;34.60;66.90
61207;DHT22;47070;49.212;8.084;2022-07-22T15:01:57;34.00;69.10
61207;DHT22;47070;49.212;8.084;2022-07-22T15:05:57;33.30;71.50
61207;DHT22;47070;49.212;8.084;2022-07-22T15:09:58;32.50;72.40
61207;DHT22;47070;49.212;8.084;2022-07-22T15:13:58;31.90;73.90
61207;DHT22;47070;49.212;8.084;2022-07-22T15:17:59;31.60;75.40
61207;DHT22;47070;49.212;8.084;2022-07-22T15:21:59;31.40;77.10
61207;DHT22;47070;49.212;8.084;2022-07-22T15:26:00;30.90;76.80
61207;DHT22;47070;49.212;8.084;2022-07-22T15:30:02;30.90;77.20
61207;DHT22;47070;49.212;8.084;2022-07-22T15:34:02;30.60;78.70
61207;DHT22;47070;49.212;8.084;2022-07-22T15:38:03;30.50;78.10
61207;DHT22;47070;49.212;8.084;2022-07-22T15:42:04;30.60;79.30
61207;DHT22;47070;49.212;8.084;2022-07-22T15:46:06;30.50;79.70
61207;DHT22;47070;49.212;8.084;2022-07-22T15:50:07;30.30;79.40
61207;DHT22;47070;49.212;8.084;2022-07-22T15:54:08;29.80;79.70
61207;DHT22;47070;49.212;8.084;2022-07-22T15:58:08;30.20;79.70
61207;DHT22;47070;49.212;8.084;2022-07-22T16:02:28;30.20;79.40
61207;DHT22;47070;49.212;8.084;2022-07-22T16:06:29;30.10;80.30
61207;DHT22;47070;49.212;8.084;2022-07-22T16:10:29;30.00;81.30
61207;DHT22;47070;49.212;8.084;2022-07-22T16:14:30;29.90;82.90
61207;DHT22;47070;49.212;8.084;2022-07-22T16:18:30;29.70;81.40
61207;DHT22;47070;49.212;8.084;2022-07-22T16:22:31;29.70;82.20
61207;DHT22;47070;49.212;8.084;2022-07-22T16:26:31;29.70;83.00
61207;DHT22;47070;49.212;8.084;2022-07-22T16:30:32;29.50;83.90
61207;DHT22;47070;49.212;8.084;2022-07-22T16:34:32;29.50;84.00
61207;DHT22;47070;49.212;8.084;2022-07-22T16:38:33;29.50;85.40
61207;DHT22;47070;49.212;8.084;2022-07-22T16:42:34;29.40;86.00
61207;DHT22;47070;49.212;8.084;2022-07-22T16:46:34;29.40;84.00
61207;DHT22;47070;49.212;8.084;2022-07-22T16:50:35;29.20;84.80
61207;DHT22;47070;49.212;8.084;2022-07-22T16:54:35;29.30;85.20
61207;DHT22;47070;49.212;8.084;2022-07-22T16:58:36;29.30;87.50
61207;DHT22;47070;49.212;8.084;2022-07-22T17:02:36;29.30;86.90
61207;DHT22;47070;49.212;8.084;2022-07-22T17:06:37;29.30;86.80
61207;DHT22;47070;49.212;8.084;2022-07-22T17:10:37;29.30;88.60
61207;DHT22;47070;49.212;8.084;2022-07-22T17:14:38;29.20;87.90
61207;DHT22;47070;49.212;8.084;2022-07-22T17:18:38;29.20;88.50
61207;DHT22;47070;49.212;8.084;2022-07-22T17:22:40;29.00;88.70
61207;DHT22;47070;49.212;8.084;2022-07-22T17:26:41;28.90;89.40
61207;DHT22;47070;49.212;8.084;2022-07-22T17:30:41;28.80;90.20
61207;DHT22;47070;49.212;8.084;2022-07-22T17:34:42;28.70;90.60
61207;DHT22;47070;49.212;8.084;2022-07-22T17:38:43;28.70;90.30
61207;DHT22;47070;49.212;8.084;2022-07-22T17:42:44;28.60;89.80
61207;DHT22;47070;49.212;8.084;2022-07-22T17:46:45;28.50;90.70
61207;DHT22;47070;49.212;8.084;2022-07-22T17:50:46;28.50;90.40
61207;DHT22;47070;49.212;8.084;2022-07-22T17:54:46;28.40;90.10
61207;DHT22;47070;49.212;8.084;2022-07-22T17:58:47;28.30;90.10
61207;DHT22;47070;49.212;8.084;2022-07-22T18:02:47;28.20;90.70
61207;DHT22;47070;49.212;8.084;2022-07-22T18:06:48;28.00;92.90
61207;DHT22;47070;49.212;8.084;2022-07-22T18:10:48;27.80;94.60
61207;DHT22;47070;49.212;8.084;2022-07-22T18:14:49;27.40;95.50
61207;DHT22;47070;49.212;8.084;2022-07-22T18:18:49;27.20;93.40
61207;DHT22;47070;49.212;8.084;2022-07-22T18:22:50;27.20;95.70
61207;DHT22;47070;49.212;8.084;2022-07-22T18:26:51;27.10;96.90
61207;DHT22;47070;49.212;8.084;2022-07-22T18:30:51;27.10;97.30
61207;DHT22;47070;49.212;8.084;2022-07-22T18:34:52;27.00;97.60
61207;DHT22;47070;49.212;8.084;2022-07-22T18:38:52;26.90;98.20
61207;DHT22;47070;49.212;8.084;2022-07-22T18:42:53;26.70;98.20
61207;DHT22;47070;49.212;8.084;2022-07-22T18:46:53;26.60;98.10
61207;DHT22;47070;49.212;8.084;2022-07-22T18:50:56;26.40;98.90
61207;DHT22;47070;49.212;8.084;2022-07-22T18:54:57;26.40;99.40
61207;DHT22;47070;49.212;8.084;2022-07-22T18:58:57;26.20;99.80
61207;DHT22;47070;49.212;8.084;2022-07-22T19:02:58;26.10;99.90
61207;DHT22;47070;49.212;8.084;2022-07-22T19:06:59;26.10;99.30
61207;DHT22;47070;49.212;8.084;2022-07-22T19:10:59;26.00;99.60
61207;DHT22;47070;49.212;8.084;2022-07-22T19:15:00;26.00;99.90
61207;DHT22;47070;49.212;8.084;2022-07-22T19:19:01;25.90;99.90
61207;DHT22;47070;49.212;8.084;2022-07-22T19:23:02;25.90;99.10
61207;DHT22;47070;49.212;8.084;2022-07-22T19:27:03;25.70;99.90
61207;DHT22;47070;49.212;8.084;2022-07-22T19:31:04;25.60;99.90
61207;DHT22;47070;49.212;8.084;2022-07-22T19:35:05;25.50;99.90
61207;DHT22;47070;49.212;8.084;2022-07-22T19:39:06;25.60;99.90
61207;DHT22;47070;49.212;8.084;2022-07-22T19:43:06;25.60;99.90
61207;DHT22;47070;49.212;8.084;2022-07-22T19:47:07;25.50;99.90
61207;DHT22;47070;49.212;8.084;2022-07-22T19:51:07;25.20;99.90
61207;DHT22;47070;49.212;8.084;2022-07-22T19:55:09;25.20;99.90
61207;DHT22;47070;49.212;8.084;2022-07-22T19:59:09;25.20;99.90
61207;DHT22;47070;49.212;8.084;2022-07-22T20:03:10;25.20;99.90
61207;DHT22;47070;49.212;8.084;2022-07-22T20:07:11;25.20;99.90
61207;DHT22;47070;49.212;8.084;2022-07-22T20:11:11;25.00;99.90
61207;DHT22;47070;49.212;8.084;2022-07-22T20:15:12;25.10;99.90
61207;DHT22;47070;49.212;8.084;2022-07-22T20:19:12;25.10;99.90
61207;DHT22;47070;49.212;8.084;2022-07-22T20:23:14;25.10;99.90
61207;DHT22;47070;49.212;8.084;2022-07-22T20:27:14;24.90;99.90
61207;DHT22;47070;49.212;8.084;2022-07-22T20:31:15;24.90;99.90
61207;DHT22;47070;49.212;8.084;2022-07-22T20:35:15;24.80;99.90
61207;DHT22;47070;49.212;8.084;2022-07-22T20:39:16;24.80;99.90
61207;DHT22;47070;49.212;8.084;2022-07-22T20:43:16;24.80;99.90
61207;DHT22;47070;49.212;8.084;2022-07-22T20:47:17;24.70;99.90
61207;DHT22;47070;49.212;8.084;2022-07-22T20:51:17;24.60;99.90
61207;DHT22;47070;49.212;8.084;2022-07-22T20:55:18;24.60;99.90
61207;DHT22;47070;49.212;8.084;2022-07-22T20:59:18;24.80;99.90
61207;DHT22;47070;49.212;8.084;2022-07-22T21:03:19;24.70;99.90
61207;DHT22;47070;49.212;8.084;2022-07-22T21:07:19;24.60;99.90
61207;DHT22;47070;49.212;8.084;2022-07-22T21:11:20;24.60;99.90
61207;DHT22;47070;49.212;8.084;2022-07-22T21:15:20;24.40;99.90
61207;DHT22;47070;49.212;8.084;2022-07-22T21:19:21;24.10;99.90
61207;DHT22;47070;49.212;8.084;2022-07-22T21:23:21;24.40;99.90
61207;DHT22;47070;49.212;8.084;2022-07-22T21:27:22;24.30;99.90
61207;DHT22;47070;49.212;8.084;2022-07-22T21:31:23;24.20;99.90
61207;DHT22;47070;49.212;8.084;2022-07-22T21:35:23;24.00;99.90
61207;DHT22;47070;49.212;8.084;2022-07-22T21:39:24;24.00;99.90
61207;DHT22;47070;49.212;8.084;2022-07-22T21:43:25;23.90;99.90
61207;DHT22;47070;49.212;8.084;2022-07-22T21:47:25;24.00;99.90
61207;DHT22;47070;49.212;8.084;2022-07-22T21:51:26;24.00;99.90
61207;DHT22;47070;49.212;8.084;2022-07-22T21:55:26;23.90;99.90
61207;DHT22;47070;49.212;8.084;2022-07-22T21:59:29;23.80;99.90
61207;DHT22;47070;49.212;8.084;2022-07-22T22:03:30;23.70;99.90
61207;DHT22;47070;49.212;8.084;2022-07-22T22:07:31;23.70;99.90
61207;DHT22;47070;49.212;8.084;2022-07-22T22:11:31;23.50;99.90
61207;DHT22;47070;49.212;8.084;2022-07-22T22:15:32;23.50;99.90
61207;DHT22;47070;49.212;8.084;2022-07-22T22:19:32;23.40;99.90
61207;DHT22;47070;49.212;8.084;2022-07-22T22:23:33;23.40;99.90
61207;DHT22;47070;49.212;8.084;2022-07-22T22:27:33;23.30;99.90
61207;DHT22;47070;49.212;8.084;2022-07-22T22:31:34;23.20;99.90
61207;DHT22;47070;49.212;8.084;2022-07-22T22:35:35;23.30;99.90
61207;DHT22;47070;49.212;8.084;2022-07-22T22:39:37;23.30;99.90
61207;DHT22;47070;49.212;8.084;2022-07-22T22:43:37;23.40;99.90
61207;DHT22;47070;49.212;8.084;2022-07-22T22:47:38;23.80;99.90
61207;DHT22;47070;49.212;8.084;2022-07-22T22:51:38;23.90;99.90
61207;DHT22;47070;49.212;8.084;2022-07-22T22:55:39;24.10;99.90
61207;DHT22;47070;49.212;8.084;2022-07-22T22:59:39;24.20;99.90
61207;DHT22;47070;49.212;8.084;2022-07-22T23:03:40;24.20;99.90
61207;DHT22;47070;49.212;8.084;2022-07-22T23:07:40;24.30;99.90
61207;DHT22;47070;49.212;8.084;2022-07-22T23:11:41;24.20;99.90
61207;DHT22;47070;49.212;8.084;2022-07-22T23:15:41;24.00;99.90
61207;DHT22;47070;49.212;8.084;2022-07-22T23:19:42;23.90;99.90
61207;DHT22;47070;49.212;8.084;2022-07-22T23:23:45;23.80;99.90
61207;DHT22;47070;49.212;8.084;2022-07-22T23:27:45;23.70;99.90
61207;DHT22;47070;49.212;8.084;2022-07-22T23:31:47;23.90;99.90
61207;DHT22;47070;49.212;8.084;2022-07-22T23:35:48;23.90;99.90
61207;DHT22;47070;49.212;8.084;2022-07-22T23:39:49;24.00;99.90
61207;DHT22;47070;49.212;8.084;2022-07-22T23:43:49;23.90;99.90
61207;DHT22;47070;49.212;8.084;2022-07-22T23:47:50;24.00;99.90
61207;DHT22;47070;49.212;8.084;2022-07-22T23:51:51;24.10;99.90
61207;DHT22;47070;49.212;8.084;2022-07-22T23:55:51;24.20;99.90
61207;DHT22;47070;49.212;8.084;2022-07-22T23:59:52;24.20;99.90
